Time;durP1;ratioP1;P1;durP2;ratioP2;P2;SDS_P1;SDS_P2;PMS_P1;PMS_P2;Temp;Humidity;BMP_temperature;BMP_pressure;BME280_temperature;BME280_humidity;BME280_pressure;Samples;Min_cycle;Max_cycle;Signal;HPM_P1;HPM_P2
2021/09/08 00:02:24;;;;;;;6.20;5.25;;;18.80;99.90;;;;;;5077210;28;20024;-71
2021/09/08 00:04:50;;;;;;;5.50;4.85;;;18.60;99.90;;;;;;5077004;28;20420;-71
2021/09/08 00:07:15;;;;;;;4.95;4.55;;;18.60;99.90;;;;;;5077157;28;20143;-71
2021/09/08 00:09:41;;;;;;;6.45;4.80;;;18.70;99.90;;;;;;5076888;28;20468;-71
2021/09/08 00:12:08;;;;;;;5.18;4.30;;;18.60;99.90;;;;;;5076959;28;20025;-71
2021/09/08 00:14:34;;;;;;;5.95;5.35;;;18.30;99.90;;;;;;5077009;28;20031;-71
2021/09/08 00:17:00;;;;;;;6.18;5.20;;;18.70;99.90;;;;;;5077018;28;20031;-71
2021/09/08 00:19:26;;;;;;;4.55;4.15;;;18.70;99.90;;;;;;5076714;28;20046;-71
2021/09/08 00:21:52;;;;;;;5.68;5.18;;;18.60;99.90;;;;;;5076868;28;20032;-71
2021/09/08 00:24:18;;;;;;;4.85;4.45;;;18.60;99.90;;;;;;5076703;28;20017;-71
2021/09/08 00:26:44;;;;;;;5.78;5.28;;;18.70;99.90;;;;;;5076882;28;20028;-71
2021/09/08 00:29:10;;;;;;;5.20;4.70;;;18.50;99.90;;;;;;5076755;28;20021;-71
2021/09/08 00:31:36;;;;;;;5.60;5.07;;;18.50;99.90;;;;;;5076686;28;20095;-71
2021/09/08 00:34:02;;;;;;;4.90;4.50;;;18.40;99.90;;;;;;5076766;28;20388;-71
2021/09/08 00:36:27;;;;;;;5.85;5.30;;;18.40;99.90;;;;;;5076141;28;20041;-71
2021/09/08 00:38:53;;;;;;;5.68;5.13;;;18.50;99.90;;;;;;5076805;28;20067;-71
2021/09/08 00:41:19;;;;;;;6.38;5.25;;;18.30;99.90;;;;;;5076605;28;20020;-71
2021/09/08 00:43:45;;;;;;;6.38;5.78;;;18.40;99.90;;;;;;5076714;28;20476;-71
2021/09/08 00:46:11;;;;;;;6.20;4.70;;;18.70;99.90;;;;;;5076504;28;20023;-71
2021/09/08 00:48:37;;;;;;;5.20;4.50;;;18.70;99.90;;;;;;5076744;28;20020;-71
2021/09/08 00:51:03;;;;;;;5.80;5.20;;;18.50;99.90;;;;;;5076215;28;20021;-71
2021/09/08 00:53:31;;;;;;;7.20;5.38;;;18.60;99.90;;;;;;5076449;28;20456;-70
2021/09/08 00:55:59;;;;;;;4.60;4.20;;;18.70;99.90;;;;;;5076648;28;20096;-71
2021/09/08 00:58:25;;;;;;;4.95;4.55;;;18.50;99.90;;;;;;5076517;28;20021;-71
2021/09/08 01:00:51;;;;;;;9.38;6.00;;;18.50;99.90;;;;;;5080456;28;20027;-71
2021/09/08 01:03:17;;;;;;;6.97;6.28;;;18.50;99.90;;;;;;5080589;28;20020;-71
2021/09/08 01:05:46;;;;;;;5.63;4.97;;;18.70;99.90;;;;;;5080435;28;20029;-71
2021/09/08 01:08:13;;;;;;;5.15;4.72;;;18.60;99.90;;;;;;5080331;28;20017;-72
2021/09/08 01:10:39;;;;;;;6.85;5.57;;;18.70;99.90;;;;;;5080402;28;20039;-73
2021/09/08 01:13:06;;;;;;;7.40;5.68;;;18.70;99.90;;;;;;5080239;28;20025;-73
2021/09/08 01:15:32;;;;;;;5.63;5.22;;;18.60;99.90;;;;;;5079010;28;20036;-72
2021/09/08 01:17:58;;;;;;;7.18;6.38;;;18.90;99.90;;;;;;5080256;28;20025;-73
2021/09/08 01:20:24;;;;;;;5.72;5.10;;;19.00;99.90;;;;;;5080113;28;20028;-73
2021/09/08 01:22:52;;;;;;;7.47;6.88;;;18.90;99.90;;;;;;5080156;28;20597;-73
2021/09/08 01:25:23;;;;;;;6.68;6.00;;;18.60;99.90;;;;;;5080114;28;20111;-71
2021/09/08 01:27:51;;;;;;;8.32;6.90;;;19.00;99.90;;;;;;5080066;28;20025;-71
2021/09/08 01:30:22;;;;;;;8.30;7.30;;;18.60;99.90;;;;;;5080112;28;20032;-70
2021/09/08 01:32:49;;;;;;;9.68;7.43;;;18.60;99.90;;;;;;5079902;28;20024;-71
2021/09/08 01:35:17;;;;;;;12.15;8.82;;;18.60;99.90;;;;;;5079612;28;20041;-72
2021/09/08 01:37:44;;;;;;;11.13;8.45;;;18.70;99.90;;;;;;5079765;28;20038;-73
2021/09/08 01:40:10;;;;;;;12.73;10.23;;;18.50;99.90;;;;;;5079936;28;20090;-73
2021/09/08 01:42:36;;;;;;;15.57;12.77;;;18.70;99.90;;;;;;5079677;28;20068;-73
2021/09/08 01:45:02;;;;;;;20.42;12.93;;;19.10;99.90;;;;;;5079804;28;20027;-72
2021/09/08 01:47:28;;;;;;;18.45;13.90;;;19.00;99.90;;;;;;5079773;28;20025;-72
2021/09/08 01:49:54;;;;;;;20.90;13.20;;;19.10;99.90;;;;;;5079639;28;20031;-72
2021/09/08 01:52:20;;;;;;;13.82;10.55;;;19.10;99.90;;;;;;5079694;28;20024;-73
2021/09/08 01:54:46;;;;;;;18.95;11.95;;;19.20;99.90;;;;;;5079552;28;20017;-73
2021/09/08 01:57:12;;;;;;;13.60;11.27;;;19.30;99.90;;;;;;5079621;28;20029;-73
2021/09/08 01:59:38;;;;;;;21.92;13.55;;;19.10;99.90;;;;;;5079562;28;20123;-72
2021/09/08 02:02:04;;;;;;;18.08;13.00;;;19.20;99.90;;;;;;5079046;28;20033;-73
2021/09/08 02:04:29;;;;;;;17.08;13.75;;;19.00;99.90;;;;;;5079209;28;20015;-73
2021/09/08 02:06:55;;;;;;;19.85;13.98;;;19.50;99.90;;;;;;5079377;28;20024;-73
2021/09/08 02:09:25;;;;;;;19.42;13.65;;;;;;;;;;5079437;28;20436;-73
2021/09/08 02:11:51;;;;;;;15.32;12.00;;;19.40;99.90;;;;;;5078260;28;20066;-73
2021/09/08 02:14:16;;;;;;;17.98;13.93;;;19.50;99.90;;;;;;5079290;28;20021;-72
2021/09/08 02:16:43;;;;;;;21.10;14.02;;;19.60;99.90;;;;;;5077703;28;20640;-72
2021/09/08 02:19:08;;;;;;;16.73;13.73;;;19.60;99.90;;;;;;5079233;28;20021;-73
2021/09/08 02:21:34;;;;;;;18.52;14.23;;;19.50;99.90;;;;;;5078552;28;20519;-71
2021/09/08 02:24:00;;;;;;;17.75;13.80;;;19.50;99.90;;;;;;5077747;28;20017;-70
2021/09/08 02:26:26;;;;;;;16.40;12.63;;;19.60;99.90;;;;;;5079013;28;20388;-70
2021/09/08 02:28:52;;;;;;;21.17;14.70;;;19.50;99.90;;;;;;5079309;28;20016;-71
2021/09/08 02:31:17;;;;;;;14.38;12.82;;;19.60;99.90;;;;;;5078611;28;20028;-71
2021/09/08 02:33:43;;;;;;;19.00;13.07;;;19.70;99.90;;;;;;5078916;28;20822;-71
2021/09/08 02:36:09;;;;;;;19.27;15.25;;;19.50;99.90;;;;;;5078292;28;20036;-70
2021/09/08 02:38:35;;;;;;;21.17;16.40;;;19.30;99.90;;;;;;5078749;28;20055;-71
2021/09/08 02:41:06;;;;;;;19.27;15.25;;;19.60;99.90;;;;;;5078513;28;20028;-71
2021/09/08 02:43:33;;;;;;;24.77;16.38;;;19.40;99.90;;;;;;5078893;28;20035;-71
2021/09/08 02:46:02;;;;;;;18.08;14.65;;;19.40;99.90;;;;;;5078732;28;20025;-71
2021/09/08 02:48:28;;;;;;;19.27;13.73;;;19.70;99.90;;;;;;5078775;28;20029;-71
2021/09/08 02:50:54;;;;;;;19.13;13.98;;;19.30;99.90;;;;;;5078142;28;20116;-71
2021/09/08 02:53:20;;;;;;;18.73;13.82;;;19.70;99.90;;;;;;5078462;28;20101;-71
2021/09/08 02:55:46;;;;;;;19.65;14.88;;;19.50;99.90;;;;;;5078526;28;20027;-71
2021/09/08 02:58:12;;;;;;;22.08;15.80;;;19.40;99.90;;;;;;5078576;28;20023;-71
2021/09/08 03:00:37;;;;;;;23.35;13.95;;;19.60;99.90;;;;;;5078665;28;20489;-71
2021/09/08 03:03:03;;;;;;;20.45;14.10;;;19.10;99.90;;;;;;5078241;28;20070;-71
2021/09/08 03:05:29;;;;;;;18.83;14.38;;;19.70;99.90;;;;;;5078004;28;20024;-71
2021/09/08 03:07:55;;;;;;;19.23;15.20;;;19.10;99.90;;;;;;5078386;28;20071;-70
2021/09/08 03:10:21;;;;;;;19.33;13.93;;;19.50;99.90;;;;;;5078083;28;20070;-71
2021/09/08 03:12:47;;;;;;;18.02;14.02;;;19.20;99.90;;;;;;5078171;28;20021;-71
2021/09/08 03:15:13;;;;;;;22.45;15.30;;;19.30;99.90;;;;;;5077970;28;20028;-71
2021/09/08 03:17:39;;;;;;;16.63;12.45;;;19.10;99.90;;;;;;5078064;28;20489;-71
2021/09/08 03:20:06;;;;;;;18.52;13.15;;;19.30;99.90;;;;;;5077587;28;20031;-71
2021/09/08 03:22:32;;;;;;;17.17;13.50;;;19.30;99.90;;;;;;5077773;28;20031;-71
2021/09/08 03:24:58;;;;;;;16.63;13.73;;;19.60;99.90;;;;;;5077659;28;20052;-71
2021/09/08 03:27:23;;;;;;;15.63;13.02;;;19.40;99.90;;;;;;5077832;28;20450;-70
2021/09/08 03:29:51;;;;;;;19.90;13.93;;;19.40;99.90;;;;;;5077806;28;20031;-71
2021/09/08 03:32:16;;;;;;;19.38;13.77;;;19.60;99.90;;;;;;5077634;28;20134;-70
2021/09/08 03:34:42;;;;;;;20.85;15.30;;;19.40;99.90;;;;;;5075949;28;20033;-71
2021/09/08 03:37:08;;;;;;;18.08;14.45;;;19.40;99.90;;;;;;5076248;28;20073;-70
2021/09/08 03:39:34;;;;;;;20.17;13.80;;;19.40;99.90;;;;;;5077438;28;20107;-71
2021/09/08 03:42:00;;;;;;;18.45;14.85;;;19.60;99.90;;;;;;5077567;28;20024;-71
2021/09/08 03:44:26;;;;;;;19.83;13.30;;;19.50;99.90;;;;;;5077351;28;20100;-71
2021/09/08 03:46:52;;;;;;;16.13;12.15;;;19.50;99.90;;;;;;5077472;28;20429;-71
2021/09/08 03:49:17;;;;;;;15.98;12.05;;;19.60;99.90;;;;;;5076976;28;20036;-71
2021/09/08 03:51:43;;;;;;;17.02;11.07;;;19.60;99.90;;;;;;5077479;28;20173;-69
2021/09/08 03:54:09;;;;;;;14.10;9.50;;;19.50;99.90;;;;;;5077046;28;20519;-70
2021/09/08 03:56:35;;;;;;;19.70;11.70;;;19.70;99.90;;;;;;5077178;28;20086;-70
2021/09/08 03:59:01;;;;;;;14.40;10.77;;;19.70;99.90;;;;;;5077116;28;20059;-71
2021/09/08 04:01:27;;;;;;;12.27;9.68;;;19.60;99.90;;;;;;5077187;28;20020;-70
2021/09/08 04:03:53;;;;;;;10.88;8.82;;;19.80;99.90;;;;;;5077336;28;20025;-70
2021/09/08 04:06:19;;;;;;;12.95;7.78;;;19.80;99.90;;;;;;5077008;28;20017;-71
2021/09/08 04:08:45;;;;;;;11.75;6.43;;;20.00;99.90;;;;;;5076984;28;20033;-72
2021/09/08 04:11:11;;;;;;;7.47;5.10;;;19.60;99.90;;;;;;5076897;28;20033;-73
2021/09/08 04:13:37;;;;;;;11.73;4.80;;;19.70;99.90;;;;;;5077016;28;20370;-73
2021/09/08 04:16:04;;;;;;;8.10;3.80;;;20.00;99.90;;;;;;5077007;28;20494;-71
2021/09/08 17:08:23;;;;;;;0.77;0.75;;;;;;;;;;4990392;23;20047;-62
2021/09/08 17:10:51;;;;;;;1.35;0.80;;;;;;;;;;4977794;28;20062;-62
2021/09/08 17:13:19;;;;;;;4.15;1.20;;;;;;;;;;4978077;28;20030;-62
2021/09/08 17:15:47;;;;;;;5.28;1.45;;;;;;;;;;4978609;28;20027;-62
2021/09/08 17:18:13;;;;;;;4.50;1.27;;;;;;;;;;4977771;28;20031;-62
2021/09/08 17:20:39;;;;;;;4.97;1.50;;;;;;;;;;4978700;28;20386;-62
2021/09/08 17:23:06;;;;;;;2.83;0.82;;;;;;;;;;4978054;28;20038;-62
2021/09/08 17:25:32;;;;;;;3.10;1.13;;;24.00;99.90;;;;;;4978097;28;20031;-62
2021/09/08 17:27:58;;;;;;;5.00;1.42;;;;;;;;;;4978254;28;20516;-63
2021/09/08 17:30:24;;;;;;;3.70;1.08;;;23.90;99.90;;;;;;4978621;28;20069;-62
2021/09/08 17:32:50;;;;;;;1.77;0.85;;;23.70;99.90;;;;;;4978307;28;20035;-62
2021/09/08 17:35:16;;;;;;;1.73;0.95;;;23.60;99.90;;;;;;4978283;28;20183;-62
2021/09/08 17:37:43;;;;;;;2.00;1.10;;;23.10;99.90;;;;;;4977886;28;20151;-62
2021/09/08 17:40:14;;;;;;;3.03;0.95;;;22.80;99.90;;;;;;4978449;28;20031;-62
2021/09/08 17:42:48;;;;;;;2.47;0.85;;;22.50;99.90;;;;;;4980840;28;20034;-62
2021/09/08 17:45:16;;;;;;;3.90;1.08;;;22.40;99.90;;;;;;4981772;28;20046;-62
2021/09/08 17:47:42;;;;;;;1.52;0.88;;;;;;;;;;4981895;28;20110;-62
2021/09/08 17:50:12;;;;;;;3.67;1.15;;;;;;;;;;4981739;28;20026;-63
2021/09/08 17:52:39;;;;;;;3.05;1.67;;;;;;;;;;4981242;28;20043;-62
2021/09/08 17:55:11;;;;;;;4.57;1.40;;;21.90;99.90;;;;;;4981649;28;20560;-61
2021/09/08 17:57:37;;;;;;;4.18;1.08;;;21.60;99.90;;;;;;4981767;28;20191;-73
2021/09/08 18:00:05;;;;;;;2.88;1.50;;;21.50;99.90;;;;;;4980263;28;20438;-73
2021/09/08 18:02:32;;;;;;;3.55;1.90;;;21.20;99.90;;;;;;4981357;28;20066;-72
2021/09/08 18:04:58;;;;;;;1.52;1.13;;;21.60;99.90;;;;;;4981732;28;20023;-73
2021/09/08 18:07:25;;;;;;;5.95;1.65;;;21.50;99.90;;;;;;4980805;28;20027;-73
2021/09/08 18:09:51;;;;;;;5.20;2.15;;;21.60;99.90;;;;;;4979985;28;20050;-72
2021/09/08 18:12:18;;;;;;;2.30;1.73;;;21.60;99.90;;;;;;4981420;28;20033;-72
2021/09/08 18:14:44;;;;;;;4.82;1.92;;;21.30;99.90;;;;;;4981359;28;20030;-72
2021/09/08 18:17:10;;;;;;;4.32;2.83;;;21.40;99.90;;;;;;4981091;28;20026;-72
2021/09/08 18:19:36;;;;;;;1.90;1.50;;;;;;;;;;4981402;28;20030;-72
2021/09/08 18:22:03;;;;;;;2.80;1.70;;;21.00;99.90;;;;;;4981040;28;20038;-73
2021/09/08 18:24:30;;;;;;;3.90;1.67;;;;;;;;;;4980848;28;20027;-73
2021/09/08 18:26:56;;;;;;;2.95;1.67;;;;;;;;;;4980913;28;20031;-73
2021/09/08 18:29:23;;;;;;;4.03;2.33;;;;;;;;;;4981066;28;20474;-73
2021/09/08 18:31:49;;;;;;;2.83;1.80;;;;;;;;;;4980955;28;20073;-72
2021/09/08 18:34:15;;;;;;;2.38;1.52;;;;;;;;;;4981201;28;20034;-72
2021/09/08 18:36:41;;;;;;;3.92;1.70;;;;;;;;;;4981003;28;20030;-72
2021/09/08 18:39:07;;;;;;;2.42;1.45;;;;;;;;;;4980607;28;20050;-72
2021/09/08 18:41:33;;;;;;;3.35;1.88;;;;;;;;;;4980745;28;20433;-73
2021/09/08 18:44:00;;;;;;;2.92;1.50;;;;;;;;;;4991436;28;20027;-73
2021/09/08 18:46:26;;;;;;;3.88;1.70;;;;;;;;;;4982082;28;20023;-73
2021/09/08 18:48:53;;;;;;;1.92;1.55;;;;;;;;;;4980715;28;20019;-72
2021/09/08 18:51:22;;;;;;;2.58;1.70;;;;;;;;;;4980522;28;20382;-72
2021/09/08 18:53:49;;;;;;;5.78;1.88;;;;;;;;;;4979661;28;20031;-73
2021/09/08 18:56:15;;;;;;;3.67;1.90;;;;;;;;;;4980376;28;20085;-73
2021/09/08 18:58:42;;;;;;;3.25;1.90;;;21.00;99.90;;;;;;4980464;28;20058;-73
2021/09/08 19:01:08;;;;;;;3.55;1.80;;;20.10;99.90;;;;;;4980294;28;20034;-73
2021/09/08 19:03:34;;;;;;;4.75;1.88;;;20.30;99.90;;;;;;4980468;28;20114;-72
2021/09/08 19:06:02;;;;;;;3.72;1.70;;;20.60;99.90;;;;;;4980164;28;20027;-72
2021/09/08 19:08:29;;;;;;;2.92;1.92;;;20.40;99.90;;;;;;4979954;28;20074;-72
2021/09/08 19:10:59;;;;;;;6.40;2.90;;;20.10;99.90;;;;;;4978741;28;20030;-73
2021/09/08 19:13:26;;;;;;;3.83;1.85;;;20.60;99.90;;;;;;4980185;28;20117;-72
2021/09/08 19:15:52;;;;;;;6.85;2.45;;;20.50;99.90;;;;;;4980521;28;20026;-72
2021/09/08 19:18:18;;;;;;;2.17;1.85;;;20.10;99.90;;;;;;4980244;28;20200;-73
2021/09/08 19:20:45;;;;;;;2.85;1.95;;;19.90;99.90;;;;;;4980057;28;20070;-73
2021/09/08 19:23:12;;;;;;;4.95;2.00;;;20.20;99.90;;;;;;4979833;28;20144;-72
2021/09/08 19:25:39;;;;;;;5.75;2.25;;;20.10;99.90;;;;;;4978660;28;20445;-73
2021/09/08 19:28:05;;;;;;;3.85;2.40;;;20.10;99.90;;;;;;4979998;28;20387;-72
2021/09/08 19:30:33;;;;;;;3.28;2.13;;;20.00;99.90;;;;;;4980094;28;20594;-72
2021/09/08 19:33:00;;;;;;;3.97;2.33;;;19.90;99.90;;;;;;4980163;28;20041;-72
2021/09/08 19:35:26;;;;;;;5.65;2.40;;;19.90;99.90;;;;;;4979761;28;20034;-72
2021/09/08 19:37:53;;;;;;;3.67;2.33;;;19.90;99.90;;;;;;4979429;28;20430;-72
2021/09/08 19:40:20;;;;;;;2.40;2.20;;;19.60;99.90;;;;;;4979707;28;20030;-72
2021/09/08 19:42:46;;;;;;;4.15;2.67;;;19.90;99.90;;;;;;4979698;28;20031;-72
2021/09/08 19:45:14;;;;;;;5.28;2.20;;;19.50;99.90;;;;;;4978255;28;20054;-72
2021/09/08 19:47:42;;;;;;;10.13;3.28;;;19.50;99.90;;;;;;4979516;28;20051;-73
2021/09/08 19:50:11;;;;;;;3.60;2.47;;;19.40;99.90;;;;;;4979510;28;20025;-72
2021/09/08 19:52:37;;;;;;;5.55;2.45;;;19.40;99.90;;;;;;4977934;28;20463;-72
2021/09/08 19:55:07;;;;;;;2.85;2.08;;;19.50;99.90;;;;;;4978101;28;20070;-72
2021/09/08 19:57:33;;;;;;;6.35;3.20;;;19.40;99.90;;;;;;4978063;28;20560;-72
2021/09/08 19:59:59;;;;;;;5.45;3.00;;;19.40;99.90;;;;;;4977949;28;20062;-72
2021/09/08 20:02:26;;;;;;;3.28;2.97;;;19.60;99.90;;;;;;4979275;28;20026;-72
2021/09/08 20:04:53;;;;;;;5.55;3.45;;;19.30;99.90;;;;;;4978313;28;20398;-72
2021/09/08 20:07:21;;;;;;;5.63;3.25;;;19.30;99.90;;;;;;4979175;28;20026;-72
2021/09/08 20:09:49;;;;;;;3.97;3.17;;;19.20;99.90;;;;;;4978939;28;20035;-72
2021/09/08 20:12:15;;;;;;;5.15;3.08;;;19.40;99.90;;;;;;4979241;28;20027;-73
2021/09/08 20:14:42;;;;;;;6.78;4.47;;;19.30;99.90;;;;;;4979129;28;20767;-72
2021/09/08 20:17:08;;;;;;;2.75;2.55;;;;;;;;;;4979145;28;20031;-73
2021/09/08 20:19:36;;;;;;;4.22;2.88;;;19.10;99.90;;;;;;4978895;28;20390;-73
2021/09/08 20:22:02;;;;;;;3.08;2.70;;;;;;;;;;4978966;28;20513;-74
2021/09/08 20:24:28;;;;;;;4.28;2.75;;;;;;;;;;4978860;28;20027;-74
2021/09/08 20:26:54;;;;;;;2.83;2.63;;;;;;;;;;4979006;28;20023;-74
2021/09/08 20:29:21;;;;;;;3.03;2.72;;;;;;;;;;4978874;28;20026;-74
2021/09/08 20:31:47;;;;;;;4.05;2.70;;;;;;;;;;4978909;28;20063;-74
2021/09/08 20:34:13;;;;;;;3.72;2.83;;;19.00;99.90;;;;;;4978841;28;20034;-74
2021/09/08 20:36:39;;;;;;;3.03;2.83;;;18.90;99.90;;;;;;4978759;28;20023;-74
2021/09/08 20:39:06;;;;;;;3.13;2.75;;;;;;;;;;4977017;28;20082;-61
2021/09/08 20:41:33;;;;;;;5.70;3.17;;;;;;;;;;4978869;28;20066;-60
2021/09/08 20:43:59;;;;;;;4.20;3.35;;;18.70;99.90;;;;;;4978470;28;20478;-60
2021/09/08 20:46:28;;;;;;;6.50;3.13;;;;;;;;;;4971941;28;20056;-73
2021/09/08 20:48:58;;;;;;;3.50;3.17;;;;;;;;;;4978500;28;20023;-73
2021/09/08 20:51:25;;;;;;;4.78;3.15;;;;;;;;;;4978415;28;20027;-73
2021/09/08 20:53:51;;;;;;;3.13;2.85;;;;;;;;;;4977639;28;20031;-73
2021/09/08 20:56:19;;;;;;;2.80;2.55;;;;;;;;;;4978529;28;20030;-73
2021/09/08 20:58:48;;;;;;;6.03;3.13;;;;;;;;;;4978547;28;20051;-73
2021/09/08 21:01:16;;;;;;;3.42;3.13;;;;;;;;;;4978300;28;20085;-73
2021/09/08 21:03:42;;;;;;;4.10;3.17;;;;;;;;;;4978398;28;20030;-73
2021/09/08 21:06:08;;;;;;;2.70;2.50;;;;;;;;;;4977372;28;20030;-73
2021/09/08 21:08:35;;;;;;;2.80;2.60;;;;;;;;;;4976705;28;20046;-73
2021/09/08 21:11:01;;;;;;;3.20;2.97;;;;;;;;;;4978413;28;20030;-73
2021/09/08 21:13:27;;;;;;;3.10;2.90;;;;;;;;;;4976644;28;20118;-74
2021/09/08 21:15:53;;;;;;;4.35;3.42;;;;;;;;;;4978632;28;20027;-74
2021/09/08 21:18:20;;;;;;;3.40;2.80;;;;;;;;;;4980872;28;20031;-73
2021/09/08 21:20:46;;;;;;;3.30;3.10;;;;;;;;;;4981064;28;20035;-74
2021/09/08 21:23:12;;;;;;;3.42;3.22;;;;;;;;;;4981814;28;20494;-74
2021/09/08 21:25:38;;;;;;;3.33;3.03;;;;;;;;;;4982209;28;20507;-74
2021/09/08 21:28:05;;;;;;;4.28;3.38;;;;;;;;;;4982126;28;20022;-74
2021/09/08 21:30:31;;;;;;;3.47;3.28;;;;;;;;;;4982173;28;20030;-74
2021/09/08 21:32:58;;;;;;;5.80;3.95;;;;;;;;;;4982119;28;20031;-74
2021/09/08 21:35:24;;;;;;;3.20;3.00;;;;;;;;;;4982094;28;20498;-74
2021/09/08 21:37:51;;;;;;;4.28;3.30;;;;;;;;;;4981727;28;20077;-74
2021/09/08 21:40:18;;;;;;;4.38;3.58;;;;;;;;;;4982089;28;20155;-73
2021/09/08 21:42:45;;;;;;;3.38;3.17;;;;;;;;;;4981733;28;20498;-74
2021/09/08 21:45:12;;;;;;;3.22;2.92;;;;;;;;;;4981916;28;20035;-74
2021/09/08 21:47:38;;;;;;;3.70;3.40;;;;;;;;;;4980405;28;20019;-74
2021/09/08 21:50:06;;;;;;;4.03;3.65;;;;;;;;;;4981982;28;20027;-74
2021/09/08 21:52:32;;;;;;;4.07;3.78;;;;;;;;;;4981350;28;20065;-74
2021/09/08 21:54:58;;;;;;;3.72;3.53;;;;;;;;;;4981872;28;20034;-74
2021/09/08 21:57:24;;;;;;;4.32;3.97;;;;;;;;;;4981509;28;20561;-74
2021/09/08 21:59:50;;;;;;;3.92;3.55;;;;;;;;;;4981915;28;20038;-74
2021/09/08 22:02:17;;;;;;;4.85;4.45;;;;;;;;;;4981330;28;20395;-74
2021/09/08 22:04:43;;;;;;;4.20;3.90;;;;;;;;;;4981661;28;20061;-74
2021/09/08 22:07:09;;;;;;;4.68;4.28;;;;;;;;;;4981095;28;20387;-73
2021/09/08 22:09:35;;;;;;;4.88;4.45;;;;;;;;;;4980053;28;20051;-73
2021/09/08 22:12:01;;;;;;;4.55;4.15;;;;;;;;;;4981226;28;20019;-74
2021/09/08 22:14:27;;;;;;;4.85;4.53;;;;;;;;;;4981245;28;20031;-74
2021/09/08 22:16:53;;;;;;;6.25;5.65;;;;;;;;;;4981237;28;20540;-74
2021/09/08 22:19:20;;;;;;;5.10;4.32;;;;;;;;;;4981445;28;20033;-74
2021/09/08 22:21:46;;;;;;;5.72;5.18;;;;;;;;;;4981275;28;20030;-74
2021/09/08 22:24:12;;;;;;;6.53;4.75;;;;;;;;;;4980720;28;20041;-74
2021/09/08 22:26:38;;;;;;;4.95;4.45;;;;;;;;;;4981244;28;20027;-74
2021/09/08 22:29:04;;;;;;;6.50;4.80;;;;;;;;;;4980241;28;20113;-74
2021/09/08 22:31:31;;;;;;;5.07;4.55;;;;;;;;;;4981182;28;20022;-74
2021/09/08 22:33:57;;;;;;;5.68;5.18;;;;;;;;;;4980837;28;20045;-74
2021/09/08 22:36:23;;;;;;;7.15;4.80;;;18.70;99.90;;;;;;4981002;28;20026;-73
2021/09/08 22:38:48;;;;;;;5.15;4.75;;;19.10;99.90;;;;;;4979220;28;20130;-74
2021/09/08 22:41:15;;;;;;;5.20;4.70;;;;;;;;;;4980941;28;20026;-73
2021/09/08 22:43:41;;;;;;;4.95;4.57;;;;;;;;;;4980670;28;20035;-74
2021/09/08 22:46:07;;;;;;;4.80;4.50;;;;;;;;;;4980819;28;20019;-73
2021/09/08 22:48:33;;;;;;;5.70;4.65;;;;;;;;;;4980643;28;20033;-74
2021/09/08 22:50:59;;;;;;;6.70;4.47;;;;;;;;;;4981098;28;20030;-73
2021/09/08 22:53:25;;;;;;;7.30;5.07;;;;;;;;;;4980299;28;20035;-72
2021/09/08 22:55:52;;;;;;;5.38;4.93;;;;;;;;;;4980782;28;20082;-73
2021/09/08 22:58:18;;;;;;;9.50;5.53;;;;;;;;;;4978942;28;20027;-74
2021/09/08 23:00:44;;;;;;;9.55;5.13;;;;;;;;;;4980750;28;20390;-74
2021/09/08 23:03:10;;;;;;;5.30;4.90;;;;;;;;;;4980268;28;20035;-74
2021/09/08 23:05:36;;;;;;;5.88;4.80;;;;;;;;;;4979039;28;20023;-73
2021/09/08 23:08:02;;;;;;;5.13;4.82;;;;;;;;;;4979660;28;20058;-73
2021/09/08 23:10:29;;;;;;;5.75;4.88;;;;;;;;;;4980268;28;20045;-74
2021/09/08 23:12:55;;;;;;;5.95;5.03;;;;;;;;;;4978922;28;20050;-73
2021/09/08 23:15:21;;;;;;;7.07;5.35;;;;;;;;;;4978901;28;20089;-74
2021/09/08 23:17:49;;;;;;;5.68;5.20;;;;;;;;;;4978562;28;20039;-74
2021/09/08 23:20:16;;;;;;;5.78;5.32;;;;;;;;;;4978904;28;20038;-74
2021/09/08 23:22:42;;;;;;;6.97;5.00;;;;;;;;;;4978318;28;20071;-74
2021/09/08 23:25:09;;;;;;;6.72;5.80;;;;;;;;;;4980358;28;20538;-74
2021/09/08 23:27:35;;;;;;;9.35;6.32;;;;;;;;;;4978661;28;20027;-74
2021/09/08 23:30:01;;;;;;;7.68;5.85;;;;;;;;;;4978686;28;20026;-74
2021/09/08 23:32:27;;;;;;;6.63;6.03;;;;;;;;;;4978578;28;20402;-74
2021/09/08 23:34:53;;;;;;;6.28;5.70;;;;;;;;;;4980060;28;20062;-74
2021/09/08 23:37:20;;;;;;;8.38;7.15;;;;;;;;;;4979415;28;20500;-73
2021/09/08 23:39:46;;;;;;;8.35;7.00;;;;;;;;;;4978317;28;20049;-74
2021/09/08 23:42:12;;;;;;;8.82;6.20;;;;;;;;;;4978270;28;20577;-74
2021/09/08 23:44:40;;;;;;;6.90;6.20;;;;;;;;;;4979896;28;20062;-74
2021/09/08 23:47:06;;;;;;;6.25;5.75;;;;;;;;;;4979762;28;20098;-74
2021/09/08 23:49:32;;;;;;;6.13;5.43;;;18.90;99.90;;;;;;4980122;28;20027;-73
2021/09/08 23:51:58;;;;;;;8.38;5.57;;;18.80;99.90;;;;;;4979366;28;20033;-73
2021/09/08 23:54:24;;;;;;;5.82;5.03;;;19.00;99.90;;;;;;4978182;28;20023;-73
2021/09/08 23:56:50;;;;;;;5.75;4.60;;;19.00;99.90;;;;;;4978067;28;20023;-73
2021/09/08 23:59:17;;;;;;;4.78;4.30;;;18.90;99.90;;;;;;4979610;28;20102;-73
